Ciudad de México, Mexico

6:50 AM CDT on April 27, 2015 (GMT -0500)
Alamos | | Change Station
CLOSE
Current Station
Personal Weather Station
Location: Ciudad De México, DISTRITO FEDERAL
Elevation: 7346 ft
Nearby Weather Stations

Elev 7346 ft 19.40 °N, 99.14 °W | Updated 3 seconds ago

Clear
Clear
58.6 °F
Feels Like 58.6 °F
N
0.0
Wind Variable Wind from SSE
Gusts 0.0 mph

Today
High -- | Low -- °F
--% Chance of Precip.
Yesterday
High -- | Low -- °F
Precip. -- in
7:10 AM 7:57 PM
Waxing Gibbous, 64% visible
Pressure 30.16 in
Visibility 6.0 miles
Clouds Clear
Dew Point 34 °F
Humidity 40%
Rainfall 0.00 in
Snow Depth Not available.
UV 0.0 out of 12
Pollen Not available.
Air Quality Not available.
Flu Activity Not available.
METAR MMMX 271045Z 17003KT 6SM SKC 16/03 A3016 NOSIG RMK HZY

More Conditions Fewer Conditions

Pressure 30.16 in
Visibility 6.0 miles
Clouds Clear
Dew Point 34 °F
Humidity 40%
Rainfall 0.00 in
Snow Depth Not available.
UV 0.0 out of 12
Pollen Not available.
Air Quality Not available.
Flu Activity Not available.
METAR MMMX 271045Z 17003KT 6SM SKC 16/03 A3016 NOSIG RMK HZY

More Conditions Fewer Conditions

10-Day Weather Forecast

Almanac

Astronomy

Apr. 27, 2015 Rise Set
Actual Time
Civil Twilight
Nautical Twilight
Astronomical Twilight
Moon
Length of Visible Light
Length of Day
Tomorrow will be .
, % of the Moon is Illuminated

Today's Extremes

Country Highs Country Lows

Community

WunderPhotos

Upload Photos

1,817,283 photos uploaded!

WunderBlogs® & News

Nearby

Air Quality

  Air Quality AQ Index Pollutant
Not available.

Snow Depth

Station Depth Elevation

Earthquake Activity

City Distance Mag. Time & Date
Minimum magnitude displayed is 2.5.

Coastal Water Temperatures

Place Temperature

Stations

Nearby Weather Stations

Station Location Temp. Windchill Dew Point Humidity Wind Precip. Elev Updated Type